sensor_id;sensor_type;location;lat;lon;timestamp;pressure;altitude;pressure_sealevel;temperature;humidity
16595;BME280;8410;52.532;13.336;2024-02-14T00:01:39;101416.50;;;13.42;53.24
16595;BME280;8410;52.532;13.336;2024-02-14T00:04:08;101413.59;;;13.93;52.69
16595;BME280;8410;52.532;13.336;2024-02-14T00:06:37;101409.28;;;13.93;52.59
16595;BME280;8410;52.532;13.336;2024-02-14T00:09:05;101399.94;;;14.12;52.60
16595;BME280;8410;52.532;13.336;2024-02-14T00:11:33;101403.97;;;13.79;53.36
16595;BME280;8410;52.532;13.336;2024-02-14T00:14:01;101399.00;;;14.02;53.21
16595;BME280;8410;52.532;13.336;2024-02-14T00:16:28;101409.16;;;13.79;52.55
16595;BME280;8410;52.532;13.336;2024-02-14T00:18:56;101409.31;;;13.96;52.40
16595;BME280;8410;52.532;13.336;2024-02-14T00:21:25;101418.78;;;13.93;53.07
16595;BME280;8410;52.532;13.336;2024-02-14T00:23:53;101411.63;;;13.70;52.30
16595;BME280;8410;52.532;13.336;2024-02-14T00:26:20;101411.81;;;13.88;52.82
16595;BME280;8410;52.532;13.336;2024-02-14T00:28:48;101408.50;;;14.02;52.62
16595;BME280;8410;52.532;13.336;2024-02-14T00:31:16;101408.25;;;13.77;52.91
16595;BME280;8410;52.532;13.336;2024-02-14T00:33:43;101415.34;;;13.97;52.94
16595;BME280;8410;52.532;13.336;2024-02-14T00:36:13;101405.06;;;14.06;52.97
16595;BME280;8410;52.532;13.336;2024-02-14T00:38:42;101408.97;;;13.65;53.89
16595;BME280;8410;52.532;13.336;2024-02-14T00:41:10;101401.66;;;14.13;52.78
16595;BME280;8410;52.532;13.336;2024-02-14T00:43:38;101411.47;;;13.58;52.91
16595;BME280;8410;52.532;13.336;2024-02-14T00:46:05;101414.50;;;13.23;53.71
16595;BME280;8410;52.532;13.336;2024-02-14T00:48:33;101415.53;;;14.18;52.73
16595;BME280;8410;52.532;13.336;2024-02-14T00:51:01;101407.75;;;14.15;52.60
16595;BME280;8410;52.532;13.336;2024-02-14T00:53:28;101411.34;;;14.34;51.80
16595;BME280;8410;52.532;13.336;2024-02-14T00:55:57;101414.97;;;13.60;52.69
16595;BME280;8410;52.532;13.336;2024-02-14T00:58:25;101406.06;;;14.23;52.42
16595;BME280;8410;52.532;13.336;2024-02-14T01:00:52;101413.03;;;14.32;51.88
16595;BME280;8410;52.532;13.336;2024-02-14T01:03:19;101408.09;;;14.58;51.76
16595;BME280;8410;52.532;13.336;2024-02-14T01:05:47;101411.59;;;14.66;51.12
16595;BME280;8410;52.532;13.336;2024-02-14T01:08:15;101407.22;;;14.54;51.75
16595;BME280;8410;52.532;13.336;2024-02-14T01:10:43;101408.84;;;14.48;51.48
16595;BME280;8410;52.532;13.336;2024-02-14T01:13:14;101405.53;;;14.60;51.53
16595;BME280;8410;52.532;13.336;2024-02-14T01:15:41;101400.34;;;14.64;50.90
16595;BME280;8410;52.532;13.336;2024-02-14T01:18:09;101396.06;;;14.66;50.89
16595;BME280;8410;52.532;13.336;2024-02-14T01:20:37;101396.75;;;14.47;51.48
16595;BME280;8410;52.532;13.336;2024-02-14T01:23:04;101398.50;;;14.51;51.26
16595;BME280;8410;52.532;13.336;2024-02-14T01:25:32;101396.13;;;14.83;51.07
16595;BME280;8410;52.532;13.336;2024-02-14T01:28:00;101397.09;;;15.02;50.12
16595;BME280;8410;52.532;13.336;2024-02-14T01:30:28;101389.94;;;14.58;51.29
16595;BME280;8410;52.532;13.336;2024-02-14T01:32:56;101401.31;;;13.73;52.01
16595;BME280;8410;52.532;13.336;2024-02-14T01:35:24;101384.41;;;14.09;52.90
16595;BME280;8410;52.532;13.336;2024-02-14T01:37:53;101382.16;;;14.55;51.29
16595;BME280;8410;52.532;13.336;2024-02-14T01:40:21;101376.91;;;14.50;51.62
16595;BME280;8410;52.532;13.336;2024-02-14T01:42:48;101379.38;;;14.30;52.44
16595;BME280;8410;52.532;13.336;2024-02-14T01:45:16;101380.97;;;14.13;51.93
16595;BME280;8410;52.532;13.336;2024-02-14T01:47:45;101374.97;;;14.22;51.71
16595;BME280;8410;52.532;13.336;2024-02-14T01:50:13;101373.22;;;14.16;52.05
16595;BME280;8410;52.532;13.336;2024-02-14T01:52:40;101383.47;;;14.05;52.36
16595;BME280;8410;52.532;13.336;2024-02-14T01:55:11;101370.75;;;14.34;52.07
16595;BME280;8410;52.532;13.336;2024-02-14T01:57:39;101376.63;;;14.09;52.39
16595;BME280;8410;52.532;13.336;2024-02-14T02:00:07;101376.72;;;14.24;52.49
16595;BME280;8410;52.532;13.336;2024-02-14T02:02:35;101379.31;;;14.24;52.86
16595;BME280;8410;52.532;13.336;2024-02-14T02:05:06;101374.13;;;14.24;52.59
16595;BME280;8410;52.532;13.336;2024-02-14T02:07:33;101362.16;;;14.36;51.91
16595;BME280;8410;52.532;13.336;2024-02-14T02:10:01;101364.47;;;14.02;53.23
16595;BME280;8410;52.532;13.336;2024-02-14T02:12:30;101359.63;;;14.46;52.26
16595;BME280;8410;52.532;13.336;2024-02-14T02:14:58;101358.56;;;14.18;52.34
16595;BME280;8410;52.532;13.336;2024-02-14T02:17:26;101347.63;;;14.54;51.78
16595;BME280;8410;52.532;13.336;2024-02-14T02:19:53;101347.53;;;14.47;51.03
16595;BME280;8410;52.532;13.336;2024-02-14T02:22:22;101346.78;;;14.57;51.84
16595;BME280;8410;52.532;13.336;2024-02-14T02:24:51;101350.09;;;14.45;51.94
16595;BME280;8410;52.532;13.336;2024-02-14T02:27:19;101346.75;;;14.59;51.78
16595;BME280;8410;52.532;13.336;2024-02-14T02:29:46;101345.03;;;14.56;51.68
16595;BME280;8410;52.532;13.336;2024-02-14T02:32:14;101343.19;;;14.46;51.50
16595;BME280;8410;52.532;13.336;2024-02-14T02:34:42;101348.34;;;14.40;52.35
16595;BME280;8410;52.532;13.336;2024-02-14T02:37:12;101344.94;;;14.44;51.61
16595;BME280;8410;52.532;13.336;2024-02-14T02:39:39;101343.19;;;14.43;51.81
16595;BME280;8410;52.532;13.336;2024-02-14T02:42:08;101345.56;;;14.10;53.03
16595;BME280;8410;52.532;13.336;2024-02-14T02:44:39;101348.16;;;14.12;51.66
16595;BME280;8410;52.532;13.336;2024-02-14T02:47:06;101342.22;;;14.25;52.17
16595;BME280;8410;52.532;13.336;2024-02-14T02:49:34;101343.13;;;14.35;52.47
16595;BME280;8410;52.532;13.336;2024-02-14T02:52:03;101344.53;;;13.92;52.16
16595;BME280;8410;52.532;13.336;2024-02-14T02:54:31;101339.56;;;14.19;52.37
16595;BME280;8410;52.532;13.336;2024-02-14T02:56:59;101336.88;;;14.05;52.45
16595;BME280;8410;52.532;13.336;2024-02-14T02:59:31;101337.00;;;14.21;51.85
16595;BME280;8410;52.532;13.336;2024-02-14T03:01:59;101338.66;;;14.09;52.87
16595;BME280;8410;52.532;13.336;2024-02-14T03:04:26;101334.50;;;14.38;51.99
16595;BME280;8410;52.532;13.336;2024-02-14T03:07:13;101327.69;;;14.49;51.72
16595;BME280;8410;52.532;13.336;2024-02-14T03:09:41;101331.25;;;14.63;51.83
16595;BME280;8410;52.532;13.336;2024-02-14T03:12:09;101322.47;;;14.43;51.27
16595;BME280;8410;52.532;13.336;2024-02-14T03:14:38;101322.47;;;14.43;52.03
16595;BME280;8410;52.532;13.336;2024-02-14T03:17:07;101320.34;;;13.86;53.30
16595;BME280;8410;52.532;13.336;2024-02-14T03:19:35;101315.50;;;14.34;52.26
16595;BME280;8410;52.532;13.336;2024-02-14T03:22:05;101313.84;;;14.41;51.75
16595;BME280;8410;52.532;13.336;2024-02-14T03:24:35;101318.25;;;14.52;51.54
16595;BME280;8410;52.532;13.336;2024-02-14T03:27:04;101315.69;;;14.60;52.28
16595;BME280;8410;52.532;13.336;2024-02-14T03:29:32;101311.97;;;14.24;52.46
16595;BME280;8410;52.532;13.336;2024-02-14T03:32:03;101318.59;;;13.82;52.73
16595;BME280;8410;52.532;13.336;2024-02-14T03:34:31;101306.97;;;14.49;51.50
16595;BME280;8410;52.532;13.336;2024-02-14T03:37:00;101321.81;;;13.60;52.72
16595;BME280;8410;52.532;13.336;2024-02-14T03:39:28;101304.94;;;14.05;53.12
16595;BME280;8410;52.532;13.336;2024-02-14T03:41:57;101299.09;;;14.30;51.79
16595;BME280;8410;52.532;13.336;2024-02-14T03:44:27;101296.31;;;14.06;51.81
16595;BME280;8410;52.532;13.336;2024-02-14T03:46:55;101301.84;;;14.55;51.36
16595;BME280;8410;52.532;13.336;2024-02-14T03:49:24;101297.53;;;14.55;51.39
16595;BME280;8410;52.532;13.336;2024-02-14T03:51:52;101294.84;;;14.48;51.50
16595;BME280;8410;52.532;13.336;2024-02-14T03:54:21;101287.75;;;14.16;52.08
16595;BME280;8410;52.532;13.336;2024-02-14T03:56:49;101297.22;;;13.15;53.50
16595;BME280;8410;52.532;13.336;2024-02-14T03:59:17;101278.28;;;14.15;52.58
16595;BME280;8410;52.532;13.336;2024-02-14T04:01:51;101277.66;;;14.53;52.11
16595;BME280;8410;52.532;13.336;2024-02-14T04:04:19;101272.53;;;14.68;51.58
16595;BME280;8410;52.532;13.336;2024-02-14T04:06:48;101282.03;;;14.66;51.05
16595;BME280;8410;52.532;13.336;2024-02-14T04:09:16;101284.41;;;14.28;50.89
16595;BME280;8410;52.532;13.336;2024-02-14T04:11:43;101295.59;;;14.25;52.05
16595;BME280;8410;52.532;13.336;2024-02-14T04:14:11;101303.50;;;14.47;51.97
16595;BME280;8410;52.532;13.336;2024-02-14T04:16:38;101311.22;;;14.39;51.19
16595;BME280;8410;52.532;13.336;2024-02-14T04:19:06;101308.81;;;14.62;51.66
16595;BME280;8410;52.532;13.336;2024-02-14T04:21:35;101305.13;;;14.32;51.79
16595;BME280;8410;52.532;13.336;2024-02-14T04:24:04;101306.97;;;14.49;51.68
16595;BME280;8410;52.532;13.336;2024-02-14T04:26:33;101303.56;;;14.56;51.81
16595;BME280;8410;52.532;13.336;2024-02-14T04:29:01;101295.72;;;14.41;51.97
16595;BME280;8410;52.532;13.336;2024-02-14T04:31:28;101299.91;;;14.26;52.21
16595;BME280;8410;52.532;13.336;2024-02-14T04:33:58;101289.78;;;14.62;52.37
16595;BME280;8410;52.532;13.336;2024-02-14T04:36:26;101289.66;;;14.45;52.21
16595;BME280;8410;52.532;13.336;2024-02-14T04:38:53;101292.38;;;14.63;51.72
16595;BME280;8410;52.532;13.336;2024-02-14T04:41:23;101291.50;;;14.58;52.13
16595;BME280;8410;52.532;13.336;2024-02-14T04:43:51;101294.84;;;14.42;51.60
16595;BME280;8410;52.532;13.336;2024-02-14T04:46:18;101289.78;;;14.60;51.87
16595;BME280;8410;52.532;13.336;2024-02-14T04:48:46;101288.94;;;14.63;51.46
16595;BME280;8410;52.532;13.336;2024-02-14T04:51:14;101287.94;;;14.45;52.13
16595;BME280;8410;52.532;13.336;2024-02-14T04:53:42;101284.59;;;14.57;51.78
16595;BME280;8410;52.532;13.336;2024-02-14T04:56:09;101271.66;;;14.69;51.80
16595;BME280;8410;52.532;13.336;2024-02-14T04:58:38;101274.25;;;14.60;52.32
16595;BME280;8410;52.532;13.336;2024-02-14T05:01:05;101274.25;;;14.66;51.48
16595;BME280;8410;52.532;13.336;2024-02-14T05:03:33;101270.84;;;14.70;51.64
16595;BME280;8410;52.532;13.336;2024-02-14T05:06:03;101263.81;;;14.54;52.13
16595;BME280;8410;52.532;13.336;2024-02-14T05:08:31;101255.84;;;14.19;52.20
16595;BME280;8410;52.532;13.336;2024-02-14T05:10:58;101253.41;;;14.51;51.49
16595;BME280;8410;52.532;13.336;2024-02-14T05:13:26;101264.53;;;14.27;52.58
16595;BME280;8410;52.532;13.336;2024-02-14T05:15:55;101252.59;;;14.53;52.32
16595;BME280;8410;52.532;13.336;2024-02-14T05:18:22;101260.41;;;14.67;51.79
16595;BME280;8410;52.532;13.336;2024-02-14T05:20:50;101248.38;;;14.75;51.64
16595;BME280;8410;52.532;13.336;2024-02-14T05:23:17;101248.31;;;14.57;52.41
16595;BME280;8410;52.532;13.336;2024-02-14T05:25:45;101244.91;;;14.70;51.59
16595;BME280;8410;52.532;13.336;2024-02-14T05:28:13;101243.97;;;14.59;52.25
16595;BME280;8410;52.532;13.336;2024-02-14T05:30:41;101236.28;;;14.76;51.61
16595;BME280;8410;52.532;13.336;2024-02-14T05:33:10;101228.56;;;15.04;51.67
16595;BME280;8410;52.532;13.336;2024-02-14T05:35:38;101228.47;;;14.62;51.83
16595;BME280;8410;52.532;13.336;2024-02-14T05:38:06;101224.16;;;14.69;51.90
16595;BME280;8410;52.532;13.336;2024-02-14T05:40:34;101219.84;;;14.71;52.40
16595;BME280;8410;52.532;13.336;2024-02-14T05:43:05;101218.09;;;14.67;51.06
16595;BME280;8410;52.532;13.336;2024-02-14T05:45:34;101220.38;;;14.01;52.89
16595;BME280;8410;52.532;13.336;2024-02-14T05:48:02;101213.66;;;14.46;53.12
16595;BME280;8410;52.532;13.336;2024-02-14T05:50:31;101217.28;;;14.78;52.23
16595;BME280;8410;52.532;13.336;2024-02-14T05:52:59;101200.06;;;14.97;51.38
16595;BME280;8410;52.532;13.336;2024-02-14T05:55:26;101212.13;;;14.85;51.72
16595;BME280;8410;52.532;13.336;2024-02-14T05:57:54;101206.00;;;14.67;51.36
16595;BME280;8410;52.532;13.336;2024-02-14T06:00:23;101217.06;;;14.32;52.97
16595;BME280;8410;52.532;13.336;2024-02-14T06:02:54;101215.53;;;14.74;52.51
16595;BME280;8410;52.532;13.336;2024-02-14T06:05:22;101213.78;;;14.66;52.33
16595;BME280;8410;52.532;13.336;2024-02-14T06:07:51;101213.81;;;14.73;52.08
16595;BME280;8410;52.532;13.336;2024-02-14T06:10:18;101207.78;;;14.88;52.11
16595;BME280;8410;52.532;13.336;2024-02-14T06:12:46;101214.53;;;14.45;52.49
16595;BME280;8410;52.532;13.336;2024-02-14T06:15:14;101211.84;;;14.17;53.21
16595;BME280;8410;52.532;13.336;2024-02-14T06:17:42;101208.53;;;14.49;52.59
16595;BME280;8410;52.532;13.336;2024-02-14T06:20:11;101212.03;;;14.62;52.55
16595;BME280;8410;52.532;13.336;2024-02-14T06:22:39;101213.78;;;14.67;52.28
16595;BME280;8410;52.532;13.336;2024-02-14T06:25:20;101212.13;;;14.82;52.04
16595;BME280;8410;52.532;13.336;2024-02-14T06:27:47;101212.06;;;14.63;52.29
16595;BME280;8410;52.532;13.336;2024-02-14T06:30:15;101226.53;;;14.20;52.96
16595;BME280;8410;52.532;13.336;2024-02-14T06:32:44;101219.59;;;14.19;53.23
16595;BME280;8410;52.532;13.336;2024-02-14T06:35:12;101213.41;;;13.94;53.24
16595;BME280;8410;52.532;13.336;2024-02-14T06:37:42;101220.44;;;14.19;53.20
16595;BME280;8410;52.532;13.336;2024-02-14T06:40:22;101217.94;;;14.38;53.01
16595;BME280;8410;52.532;13.336;2024-02-14T06:42:50;101219.63;;;14.23;53.47
16595;BME280;8410;52.532;13.336;2024-02-14T06:45:18;101215.22;;;14.07;52.84
16595;BME280;8410;52.532;13.336;2024-02-14T06:47:45;101208.59;;;14.58;52.54
16595;BME280;8410;52.532;13.336;2024-02-14T06:50:13;101201.59;;;14.45;52.43
16595;BME280;8410;52.532;13.336;2024-02-14T06:52:41;101195.56;;;14.44;52.97
16595;BME280;8410;52.532;13.336;2024-02-14T06:55:08;101187.84;;;14.61;52.97
16595;BME280;8410;52.532;13.336;2024-02-14T06:57:38;101192.94;;;14.46;53.24
16595;BME280;8410;52.532;13.336;2024-02-14T07:00:07;101193.00;;;14.52;52.47
16595;BME280;8410;52.532;13.336;2024-02-14T07:02:35;101199.94;;;14.59;53.29
16595;BME280;8410;52.532;13.336;2024-02-14T07:05:03;101188.81;;;14.86;52.38
16595;BME280;8410;52.532;13.336;2024-02-14T07:07:33;101180.16;;;14.96;51.95
16595;BME280;8410;52.532;13.336;2024-02-14T07:10:01;101188.75;;;14.77;52.17
16595;BME280;8410;52.532;13.336;2024-02-14T07:12:28;101185.34;;;14.87;52.67
16595;BME280;8410;52.532;13.336;2024-02-14T07:14:58;101179.25;;;14.65;52.99
16595;BME280;8410;52.532;13.336;2024-02-14T07:17:26;101187.00;;;14.64;52.70
16595;BME280;8410;52.532;13.336;2024-02-14T07:19:53;101178.44;;;15.17;52.10
16595;BME280;8410;52.532;13.336;2024-02-14T07:22:21;101182.78;;;15.19;51.58
16595;BME280;8410;52.532;13.336;2024-02-14T07:24:49;101192.28;;;15.04;51.96
16595;BME280;8410;52.532;13.336;2024-02-14T07:27:16;101194.00;;;14.92;52.10
16595;BME280;8410;52.532;13.336;2024-02-14T07:29:44;101197.47;;;15.17;52.05
16595;BME280;8410;52.532;13.336;2024-02-14T07:32:13;101199.16;;;14.86;51.87
16595;BME280;8410;52.532;13.336;2024-02-14T07:34:40;101206.97;;;15.06;51.80
16595;BME280;8410;52.532;13.336;2024-02-14T07:37:08;101209.59;;;15.35;51.53
16595;BME280;8410;52.532;13.336;2024-02-14T07:39:35;101218.25;;;15.24;51.37
16595;BME280;8410;52.532;13.336;2024-02-14T07:42:04;101227.72;;;15.34;51.39
16595;BME280;8410;52.532;13.336;2024-02-14T07:44:31;101213.94;;;15.32;51.49
16595;BME280;8410;52.532;13.336;2024-02-14T07:46:59;101224.19;;;14.70;52.66
16595;BME280;8410;52.532;13.336;2024-02-14T07:49:31;101216.50;;;15.33;51.42
16595;BME280;8410;52.532;13.336;2024-02-14T07:51:58;101207.00;;;15.31;51.42
16595;BME280;8410;52.532;13.336;2024-02-14T07:54:26;101210.38;;;14.81;52.19
16595;BME280;8410;52.532;13.336;2024-02-14T07:56:54;101205.28;;;15.24;51.41
16595;BME280;8410;52.532;13.336;2024-02-14T07:59:21;101205.25;;;15.57;51.27
16595;BME280;8410;52.532;13.336;2024-02-14T08:01:49;101196.63;;;15.43;51.81
16595;BME280;8410;52.532;13.336;2024-02-14T08:04:17;101200.91;;;15.50;52.09
16595;BME280;8410;52.532;13.336;2024-02-14T08:06:46;101190.59;;;15.72;51.89
16595;BME280;8410;52.532;13.336;2024-02-14T08:09:15;101191.44;;;15.61;51.77
16595;BME280;8410;52.532;13.336;2024-02-14T08:11:43;101187.06;;;14.79;52.96
16595;BME280;8410;52.532;13.336;2024-02-14T08:14:11;101180.19;;;15.36;52.24
16595;BME280;8410;52.532;13.336;2024-02-14T08:16:38;101176.69;;;15.94;51.55
16595;BME280;8410;52.532;13.336;2024-02-14T08:19:06;101187.88;;;16.12;51.47
16595;BME280;8410;52.532;13.336;2024-02-14T08:21:34;101174.06;;;15.93;52.40
16595;BME280;8410;52.532;13.336;2024-02-14T08:24:04;101174.13;;;15.76;51.95
16595;BME280;8410;52.532;13.336;2024-02-14T08:26:32;101174.13;;;15.76;53.03
16595;BME280;8410;52.532;13.336;2024-02-14T08:28:59;101176.59;;;16.16;52.46
16595;BME280;8410;52.532;13.336;2024-02-14T08:31:27;101171.53;;;15.30;54.23
16595;BME280;8410;52.532;13.336;2024-02-14T08:33:55;101169.78;;;15.55;54.22
16595;BME280;8410;52.532;13.336;2024-02-14T08:36:22;101178.44;;;15.52;54.34
16595;BME280;8410;52.532;13.336;2024-02-14T08:38:50;101175.00;;;15.33;54.42
16595;BME280;8410;52.532;13.336;2024-02-14T08:41:19;101175.88;;;15.25;54.59
16595;BME280;8410;52.532;13.336;2024-02-14T08:43:46;101174.13;;;15.17;55.41
16595;BME280;8410;52.532;13.336;2024-02-14T08:46:14;101176.72;;;15.43;53.98
16595;BME280;8410;52.532;13.336;2024-02-14T08:48:42;101181.03;;;15.64;54.22
16595;BME280;8410;52.532;13.336;2024-02-14T08:51:15;101174.13;;;15.73;54.63
16595;BME280;8410;52.532;13.336;2024-02-14T08:53:43;101174.13;;;15.54;55.09
16595;BME280;8410;52.532;13.336;2024-02-14T08:56:12;101173.25;;;15.91;54.01
16595;BME280;8410;52.532;13.336;2024-02-14T08:58:42;101178.38;;;16.04;54.08
16595;BME280;8410;52.532;13.336;2024-02-14T09:01:10;101171.44;;;16.03;54.47
16595;BME280;8410;52.532;13.336;2024-02-14T09:03:41;101168.03;;;15.87;54.80
16595;BME280;8410;52.532;13.336;2024-02-14T09:06:13;101171.41;;;16.14;54.58
16595;BME280;8410;52.532;13.336;2024-02-14T09:08:43;101170.56;;;16.10;55.15
16595;BME280;8410;52.532;13.336;2024-02-14T09:11:11;101167.16;;;15.93;55.18
16595;BME280;8410;52.532;13.336;2024-02-14T09:13:39;101175.84;;;15.74;56.04
16595;BME280;8410;52.532;13.336;2024-02-14T09:16:09;101180.06;;;16.12;55.27
16595;BME280;8410;52.532;13.336;2024-02-14T09:18:37;101173.22;;;15.92;56.10
16595;BME280;8410;52.532;13.336;2024-02-14T09:21:05;101176.59;;;16.16;54.83
16595;BME280;8410;52.532;13.336;2024-02-14T09:23:34;101177.44;;;16.27;54.78
16595;BME280;8410;52.532;13.336;2024-02-14T09:26:01;101162.56;;;17.72;51.19
16595;BME280;8410;52.532;13.336;2024-02-14T09:28:29;101164.47;;;17.55;52.23
16595;BME280;8410;52.532;13.336;2024-02-14T09:30:56;101168.69;;;16.49;54.37
16595;BME280;8410;52.532;13.336;2024-02-14T09:33:25;101164.56;;;17.46;53.63
16595;BME280;8410;52.532;13.336;2024-02-14T09:35:53;101166.84;;;17.75;53.01
16595;BME280;8410;52.532;13.336;2024-02-14T09:38:21;101163.66;;;17.47;52.54
16595;BME280;8410;52.532;13.336;2024-02-14T09:40:50;101161.16;;;17.34;54.80
16595;BME280;8410;52.532;13.336;2024-02-14T09:43:27;101168.78;;;16.19;55.29
16595;BME280;8410;52.532;13.336;2024-02-14T09:45:56;101165.44;;;17.41;54.17
16595;BME280;8410;52.532;13.336;2024-02-14T09:48:26;101169.41;;;16.71;55.65
16595;BME280;8410;52.532;13.336;2024-02-14T09:50:55;101162.97;;;17.26;54.91
16595;BME280;8410;52.532;13.336;2024-02-14T09:53:23;101167.44;;;17.13;55.43
16595;BME280;8410;52.532;13.336;2024-02-14T09:55:52;101176.53;;;16.39;56.29
16595;BME280;8410;52.532;13.336;2024-02-14T09:58:22;101174.41;;;17.07;56.32
16595;BME280;8410;52.532;13.336;2024-02-14T10:00:50;101161.19;;;17.31;55.34
16595;BME280;8410;52.532;13.336;2024-02-14T10:03:17;101167.47;;;17.07;55.54
16595;BME280;8410;52.532;13.336;2024-02-14T10:05:47;101162.94;;;17.31;56.19
16595;BME280;8410;52.532;13.336;2024-02-14T10:08:15;101165.34;;;17.54;55.79
16595;BME280;8410;52.532;13.336;2024-02-14T10:10:42;101154.06;;;17.50;55.73
16595;BME280;8410;52.532;13.336;2024-02-14T10:13:10;101152.00;;;17.88;55.04
16595;BME280;8410;52.532;13.336;2024-02-14T10:15:37;101149.53;;;17.72;55.13
16595;BME280;8410;52.532;13.336;2024-02-14T10:18:05;101159.31;;;17.49;56.10
16595;BME280;8410;52.532;13.336;2024-02-14T10:20:35;101154.72;;;17.74;56.11
16595;BME280;8410;52.532;13.336;2024-02-14T10:23:10;101147.38;;;17.23;56.54
16595;BME280;8410;52.532;13.336;2024-02-14T10:25:38;101141.84;;;17.60;56.51
16595;BME280;8410;52.532;13.336;2024-02-14T10:28:06;101150.25;;;17.90;55.79
16595;BME280;8410;52.532;13.336;2024-02-14T10:30:35;101145.88;;;17.90;55.91
16595;BME280;8410;52.532;13.336;2024-02-14T10:33:04;101150.16;;;17.03;57.60
16595;BME280;8410;52.532;13.336;2024-02-14T10:35:50;101145.97;;;17.84;55.63
16595;BME280;8410;52.532;13.336;2024-02-14T10:38:24;101143.16;;;18.01;56.66
16595;BME280;8410;52.532;13.336;2024-02-14T10:40:52;101149.06;;;17.30;58.07
16595;BME280;8410;52.532;13.336;2024-02-14T10:43:20;101146.06;;;17.72;56.34
16595;BME280;8410;52.532;13.336;2024-02-14T10:45:48;101139.78;;;16.97;57.52
16595;BME280;8410;52.532;13.336;2024-02-14T10:48:17;101147.47;;;17.12;58.00
16595;BME280;8410;52.532;13.336;2024-02-14T10:50:46;101141.69;;;17.75;57.19
16595;BME280;8410;52.532;13.336;2024-02-14T10:53:16;101141.72;;;17.72;56.67
16595;BME280;8410;52.532;13.336;2024-02-14T10:55:47;101143.13;;;18.04;56.84
16595;BME280;8410;52.532;13.336;2024-02-14T10:58:16;101135.97;;;18.21;55.99
16595;BME280;8410;52.532;13.336;2024-02-14T11:00:45;101131.47;;;18.33;56.41
16595;BME280;8410;52.532;13.336;2024-02-14T11:03:14;101137.28;;;18.53;56.01
16595;BME280;8410;52.532;13.336;2024-02-14T11:05:43;101127.75;;;18.50;56.04
16595;BME280;8410;52.532;13.336;2024-02-14T11:08:13;101125.00;;;17.96;57.31
16595;BME280;8410;52.532;13.336;2024-02-14T11:10:41;101125.34;;;18.37;56.39
16595;BME280;8410;52.532;13.336;2024-02-14T11:13:12;101131.78;;;18.10;57.79
16595;BME280;8410;52.532;13.336;2024-02-14T11:15:44;101126.84;;;18.53;56.16
16595;BME280;8410;52.532;13.336;2024-02-14T11:18:13;101120.28;;;18.24;56.83
16595;BME280;8410;52.532;13.336;2024-02-14T11:20:40;101117.81;;;18.15;56.92
16595;BME280;8410;52.532;13.336;2024-02-14T11:23:12;101125.53;;;18.21;57.13
16595;BME280;8410;52.532;13.336;2024-02-14T11:25:48;101125.34;;;17.61;58.79
16595;BME280;8410;52.532;13.336;2024-02-14T11:28:18;101124.38;;;17.71;58.14
16595;BME280;8410;52.532;13.336;2024-02-14T11:30:46;101125.09;;;17.87;59.23
16595;BME280;8410;52.532;13.336;2024-02-14T11:33:19;101116.16;;;18.08;57.45
16595;BME280;8410;52.532;13.336;2024-02-14T11:35:49;101111.50;;;17.56;58.65
16595;BME280;8410;52.532;13.336;2024-02-14T11:38:18;101117.09;;;18.01;58.02
16595;BME280;8410;52.532;13.336;2024-02-14T11:40:46;101114.97;;;18.34;57.70
16595;BME280;8410;52.532;13.336;2024-02-14T11:43:15;101113.91;;;18.45;57.30
16595;BME280;8410;52.532;13.336;2024-02-14T11:45:44;101118.19;;;18.49;57.04
16595;BME280;8410;52.532;13.336;2024-02-14T11:48:16;101114.91;;;18.37;57.83
16595;BME280;8410;52.532;13.336;2024-02-14T11:50:45;101120.03;;;18.43;57.06
16595;BME280;8410;52.532;13.336;2024-02-14T11:53:13;101118.63;;;18.17;58.42
16595;BME280;8410;52.532;13.336;2024-02-14T11:55:43;101123.00;;;17.35;59.67
16595;BME280;8410;52.532;13.336;2024-02-14T11:58:11;101122.66;;;17.70;58.18
16595;BME280;8410;52.532;13.336;2024-02-14T12:00:40;101122.28;;;18.04;59.06
16595;BME280;8410;52.532;13.336;2024-02-14T12:03:12;101113.13;;;18.39;57.28
16595;BME280;8410;52.532;13.336;2024-02-14T12:05:40;101116.69;;;18.35;58.41
16595;BME280;8410;52.532;13.336;2024-02-14T12:08:10;101110.22;;;17.97;60.52
16595;BME280;8410;52.532;13.336;2024-02-14T12:10:38;101114.22;;;18.24;58.86
16595;BME280;8410;52.532;13.336;2024-02-14T12:13:07;101114.13;;;18.32;58.60
16595;BME280;8410;52.532;13.336;2024-02-14T12:15:38;101114.88;;;18.40;58.17
16595;BME280;8410;52.532;13.336;2024-02-14T12:18:07;101109.09;;;18.18;59.30
16595;BME280;8410;52.532;13.336;2024-02-14T12:20:37;101100.94;;;18.41;58.75
16595;BME280;8410;52.532;13.336;2024-02-14T12:23:05;101113.88;;;18.47;58.72
16595;BME280;8410;52.532;13.336;2024-02-14T12:25:33;101119.63;;;18.10;59.50
16595;BME280;8410;52.532;13.336;2024-02-14T12:28:01;101111.00;;;18.65;58.31
16595;BME280;8410;52.532;13.336;2024-02-14T12:30:42;101109.91;;;18.82;58.23
16595;BME280;8410;52.532;13.336;2024-02-14T12:33:12;101114.84;;;19.00;58.83
16595;BME280;8410;52.532;13.336;2024-02-14T12:35:44;101117.72;;;18.85;60.75
16595;BME280;8410;52.532;13.336;2024-02-14T12:38:13;101103.47;;;20.39;69.79
16595;BME280;8410;52.532;13.336;2024-02-14T12:40:41;101092.22;;;21.09;63.37
16595;BME280;8410;52.532;13.336;2024-02-14T12:43:11;101109.00;;;20.25;60.54
16595;BME280;8410;52.532;13.336;2024-02-14T12:45:39;101097.41;;;20.76;62.02
16595;BME280;8410;52.532;13.336;2024-02-14T12:48:09;101100.34;;;21.00;61.18
16595;BME280;8410;52.532;13.336;2024-02-14T12:50:38;101096.63;;;21.08;62.43
16595;BME280;8410;52.532;13.336;2024-02-14T12:53:07;101094.56;;;21.54;61.24
16595;BME280;8410;52.532;13.336;2024-02-14T12:55:36;101097.81;;;21.29;61.22
16595;BME280;8410;52.532;13.336;2024-02-14T12:58:04;101104.97;;;20.88;55.08